createdAt,value
2022-08-21T00:00:54.462Z,92.55
2022-08-21T00:01:54.549Z,92.55
2022-08-21T00:02:54.519Z,92.55
2022-08-21T00:03:54.457Z,92.55
2022-08-21T00:04:57.189Z,92.46
2022-08-21T00:05:54.418Z,92.46
2022-08-21T00:06:54.420Z,92.55
2022-08-21T00:07:54.410Z,92.55
2022-08-21T00:08:54.394Z,92.55
2022-08-21T00:09:54.402Z,92.55
2022-08-21T00:10:54.350Z,92.46
2022-08-21T00:11:54.353Z,92.46
2022-08-21T00:12:54.397Z,92.46
2022-08-21T00:13:54.312Z,92.46
2022-08-21T00:14:57.114Z,92.25
2022-08-21T00:15:54.299Z,92.25
2022-08-21T00:16:57.242Z,92.35
2022-08-21T00:17:54.286Z,92.35
2022-08-21T00:18:54.257Z,92.46
2022-08-21T00:19:54.246Z,92.46
2022-08-21T00:20:54.241Z,92.46
2022-08-21T00:21:54.231Z,92.46
2022-08-21T00:22:54.333Z,92.55
2022-08-21T00:23:54.203Z,92.55
2022-08-21T00:24:54.198Z,92.55
2022-08-21T00:25:54.191Z,92.55
2022-08-21T00:26:54.194Z,92.55
2022-08-21T00:27:54.189Z,92.55
2022-08-21T00:28:54.160Z,92.55
2022-08-21T00:29:54.151Z,92.55
2022-08-21T00:30:54.125Z,92.60
2022-08-21T00:31:54.119Z,92.50
2022-08-21T00:32:54.107Z,92.46
2022-08-21T00:33:54.343Z,92.50
2022-08-21T00:34:54.092Z,92.40
2022-08-21T00:35:54.075Z,92.30
2022-08-21T00:36:54.063Z,92.30
2022-08-21T00:37:54.082Z,92.30
2022-08-21T00:38:54.056Z,92.20
2022-08-21T00:39:54.063Z,92.20
2022-08-21T00:40:54.028Z,92.10
2022-08-21T00:41:54.016Z,92.10
2022-08-21T00:42:54.091Z,92.00
2022-08-21T00:43:53.996Z,92.00
2022-08-21T00:44:53.984Z,92.00
2022-08-21T00:45:53.969Z,92.10
2022-08-21T00:46:53.956Z,92.20
2022-08-21T00:47:53.953Z,92.30
2022-08-21T00:48:54.038Z,92.30
2022-08-21T00:49:53.936Z,92.40
2022-08-21T00:50:53.905Z,92.60
2022-08-21T00:51:53.901Z,92.70
2022-08-21T00:52:53.985Z,92.80
2022-08-21T00:53:53.881Z,92.90
2022-08-21T00:54:53.881Z,93.00
2022-08-21T00:55:53.890Z,93.10
2022-08-21T00:56:53.858Z,93.10
2022-08-21T00:57:53.850Z,93.24
2022-08-21T00:58:54.825Z,93.35
2022-08-21T00:59:53.820Z,93.44
2022-08-21T01:00:53.843Z,93.44
2022-08-21T01:01:53.805Z,93.44
2022-08-21T01:02:53.791Z,93.55
2022-08-21T01:03:53.792Z,93.55
2022-08-21T01:04:53.760Z,93.65
2022-08-21T01:05:53.760Z,93.65
2022-08-21T01:06:53.735Z,93.74
2022-08-21T01:07:53.730Z,93.74
2022-08-21T01:08:53.714Z,93.85
2022-08-21T01:09:53.707Z,93.85
2022-08-21T01:10:54.637Z,93.95
2022-08-21T01:11:53.684Z,94.05
2022-08-21T01:12:53.685Z,94.05
2022-08-21T01:13:53.656Z,94.05
2022-08-21T01:14:53.648Z,94.05
2022-08-21T01:15:53.651Z,93.95
2022-08-21T01:16:53.661Z,93.85
2022-08-21T01:17:53.645Z,93.85
2022-08-21T01:18:53.609Z,93.85
2022-08-21T01:19:53.613Z,93.85
2022-08-21T01:20:53.621Z,93.95
2022-08-21T01:21:53.591Z,93.95
2022-08-21T01:22:53.581Z,93.95
2022-08-21T01:23:53.554Z,93.95
2022-08-21T01:24:53.544Z,94.05
2022-08-21T01:25:53.531Z,94.05
2022-08-21T01:26:53.526Z,94.05
2022-08-21T01:27:53.539Z,94.05
2022-08-21T01:28:53.517Z,93.95
2022-08-21T01:29:53.488Z,93.85
2022-08-21T01:30:53.494Z,93.74
2022-08-21T01:31:53.478Z,93.74
2022-08-21T01:32:53.469Z,93.74
2022-08-21T01:33:53.446Z,93.89
2022-08-21T01:34:53.433Z,93.79
2022-08-21T01:35:53.433Z,93.79
2022-08-21T01:36:53.408Z,93.59
2022-08-21T01:37:53.425Z,93.59
2022-08-21T01:38:53.481Z,93.59
2022-08-21T01:39:53.454Z,93.59
2022-08-21T01:40:53.370Z,93.69
2022-08-21T01:41:53.371Z,93.69
2022-08-21T01:42:53.357Z,93.59
2022-08-21T01:43:53.346Z,93.49
2022-08-21T01:44:54.769Z,93.29
2022-08-21T01:45:53.314Z,93.29
2022-08-21T01:46:53.301Z,93.19
2022-08-21T01:47:53.302Z,93.19
2022-08-21T01:48:53.315Z,93.29
2022-08-21T01:49:53.276Z,93.29
2022-08-21T01:50:56.822Z,93.29
2022-08-21T01:51:53.291Z,93.29
2022-08-21T01:52:53.239Z,93.39
2022-08-21T01:53:53.260Z,93.39
2022-08-21T01:54:55.052Z,93.19
2022-08-21T01:55:53.219Z,93.19
2022-08-21T01:56:53.195Z,93.19
2022-08-21T01:57:53.198Z,93.29
2022-08-21T01:58:53.177Z,93.09
2022-08-21T01:59:53.203Z,92.99
2022-08-21T02:00:53.248Z,92.89
2022-08-21T02:01:53.148Z,92.38
2022-08-21T02:02:53.132Z,92.29
2022-08-21T02:03:53.131Z,92.18
2022-08-21T02:04:53.104Z,91.83
2022-08-21T02:05:53.114Z,91.42
2022-08-21T02:06:53.087Z,91.32
2022-08-21T02:07:53.085Z,91.22
2022-08-21T02:08:53.066Z,91.13
2022-08-21T02:09:53.058Z,91.13
2022-08-21T02:10:53.056Z,91.22
2022-08-21T02:11:53.038Z,91.32
2022-08-21T02:12:53.024Z,91.22
2022-08-21T02:13:53.012Z,91.22
2022-08-21T02:14:52.997Z,90.92
2022-08-21T02:15:53.030Z,90.12
2022-08-21T02:16:52.977Z,90.02
2022-08-21T02:17:52.977Z,90.02
2022-08-21T02:18:52.954Z,90.12
2022-08-21T02:19:52.956Z,90.12
2022-08-21T02:20:54.127Z,90.02
2022-08-21T02:21:52.934Z,89.42
2022-08-21T02:22:52.916Z,89.11
2022-08-21T02:23:52.900Z,89.01
2022-08-21T02:24:54.439Z,89.11
2022-08-21T02:25:52.876Z,89.15
2022-08-21T02:26:52.901Z,89.15
2022-08-21T02:27:52.860Z,89.15
2022-08-21T02:28:52.847Z,89.06
2022-08-21T02:29:52.839Z,88.75
2022-08-21T02:30:52.831Z,88.75
2022-08-21T02:31:52.815Z,88.65
2022-08-21T02:32:52.809Z,88.75
2022-08-21T02:33:52.785Z,88.75
2022-08-21T02:34:52.796Z,88.35
2022-08-21T02:35:52.772Z,88.35
2022-08-21T02:36:59.605Z,88.35
2022-08-21T02:37:52.767Z,88.35
2022-08-21T02:38:52.731Z,88.25
2022-08-21T02:39:52.755Z,88.35
2022-08-21T02:40:52.715Z,88.35
2022-08-21T02:41:52.701Z,88.45
2022-08-21T02:42:52.686Z,88.55
2022-08-21T02:43:52.692Z,88.65
2022-08-21T02:44:52.659Z,88.65
2022-08-21T02:45:52.658Z,88.75
2022-08-21T02:46:52.639Z,88.75
2022-08-21T02:47:52.634Z,88.75
2022-08-21T02:48:52.631Z,88.75
2022-08-21T02:49:52.619Z,88.65
2022-08-21T02:50:52.594Z,88.55
2022-08-21T02:51:52.598Z,88.55
2022-08-21T02:52:54.919Z,88.09
2022-08-21T02:53:52.582Z,88.29
2022-08-21T02:54:52.550Z,88.49
2022-08-21T02:55:52.548Z,88.49
2022-08-21T02:56:52.547Z,88.59
2022-08-21T02:57:52.519Z,88.59
2022-08-21T02:58:52.513Z,88.39
2022-08-21T02:59:52.515Z,88.39
2022-08-21T03:00:52.479Z,88.49
2022-08-21T03:01:52.522Z,88.49
2022-08-21T03:02:52.464Z,88.39
2022-08-21T03:03:52.455Z,88.29
2022-08-21T03:04:52.456Z,88.09
2022-08-21T03:05:52.433Z,87.99
2022-08-21T03:06:52.418Z,87.89
2022-08-21T03:07:52.406Z,87.99
2022-08-21T03:08:52.405Z,87.79
2022-08-21T03:09:55.943Z,87.69
2022-08-21T03:10:52.374Z,87.79
2022-08-21T03:11:52.369Z,87.49
2022-08-21T03:12:52.353Z,87.59
2022-08-21T03:13:52.346Z,87.59
2022-08-21T03:14:52.393Z,87.49
2022-08-21T03:15:52.330Z,87.49
2022-08-21T03:16:52.316Z,87.49
2022-08-21T03:17:52.299Z,87.39
2022-08-21T03:18:52.283Z,87.29
2022-08-21T03:19:52.275Z,86.88
2022-08-21T03:20:52.276Z,86.68
2022-08-21T03:21:52.252Z,86.79
2022-08-21T03:22:52.967Z,86.79
2022-08-21T03:23:52.232Z,86.88
2022-08-21T03:24:52.259Z,86.88
2022-08-21T03:25:52.228Z,86.79
2022-08-21T03:26:52.209Z,86.79
2022-08-21T03:27:55.926Z,86.79
2022-08-21T03:28:52.187Z,86.63
2022-08-21T03:29:52.174Z,86.28
2022-08-21T03:30:52.159Z,86.43
2022-08-21T03:31:52.152Z,86.43
2022-08-21T03:32:52.130Z,86.43
2022-08-21T03:33:52.125Z,86.43
2022-08-21T03:34:52.109Z,86.52
2022-08-21T03:35:52.117Z,86.52
2022-08-21T03:36:52.128Z,86.43
2022-08-21T03:37:52.086Z,86.32
2022-08-21T03:38:52.084Z,86.12
2022-08-21T03:39:52.124Z,86.12
2022-08-21T03:40:52.043Z,85.82
2022-08-21T03:41:52.050Z,85.92
2022-08-21T03:42:52.037Z,85.92
2022-08-21T03:43:52.022Z,85.92
2022-08-21T03:44:51.997Z,86.02
2022-08-21T03:45:52.728Z,86.02
2022-08-21T03:46:51.983Z,86.02
2022-08-21T03:47:51.981Z,85.82
2022-08-21T03:48:51.956Z,85.92
2022-08-21T03:49:51.960Z,85.72
2022-08-21T03:50:51.935Z,85.42
2022-08-21T03:51:56.159Z,85.62
2022-08-21T03:52:51.922Z,85.82
2022-08-21T03:53:51.906Z,85.96
2022-08-21T03:54:51.911Z,85.96
2022-08-21T03:55:51.884Z,85.76
2022-08-21T03:56:51.874Z,85.76
2022-08-21T03:57:51.870Z,85.82
2022-08-21T03:58:51.851Z,85.86
2022-08-21T03:59:51.860Z,85.66
2022-08-21T04:00:51.851Z,85.66
2022-08-21T04:01:51.838Z,85.56
2022-08-21T04:02:51.838Z,85.56
2022-08-21T04:03:51.800Z,85.36
2022-08-21T04:04:51.786Z,85.36
2022-08-21T04:05:51.785Z,85.46
2022-08-21T04:06:51.767Z,85.36
2022-08-21T04:07:51.764Z,85.25
2022-08-21T04:08:51.743Z,85.25
2022-08-21T04:09:51.739Z,85.36
2022-08-21T04:10:51.732Z,85.46
2022-08-21T04:11:51.712Z,85.46
2022-08-21T04:12:51.705Z,85.56
2022-08-21T04:13:51.689Z,85.66
2022-08-21T04:14:51.672Z,85.86
2022-08-21T04:15:51.673Z,85.86
2022-08-21T04:16:51.666Z,85.86
2022-08-21T04:17:51.651Z,85.96
2022-08-21T04:18:51.632Z,85.86
2022-08-21T04:19:53.790Z,85.66
2022-08-21T04:20:51.616Z,85.56
2022-08-21T04:21:52.634Z,85.46
2022-08-21T04:22:51.905Z,85.46
2022-08-21T04:23:51.577Z,85.46
2022-08-21T04:24:51.573Z,85.46
2022-08-21T04:25:51.563Z,85.56
2022-08-21T04:26:51.551Z,85.66
2022-08-21T04:27:51.549Z,85.66
2022-08-21T04:28:51.525Z,85.56
2022-08-21T04:29:51.516Z,85.36
2022-08-21T04:30:51.497Z,85.16
2022-08-21T04:31:51.503Z,85.16
2022-08-21T04:32:51.567Z,85.25
2022-08-21T04:33:51.472Z,85.36
2022-08-21T04:34:51.461Z,85.25
2022-08-21T04:35:51.452Z,85.05
2022-08-21T04:36:51.448Z,84.95
2022-08-21T04:37:51.443Z,84.95
2022-08-21T04:38:51.411Z,84.95
2022-08-21T04:39:53.551Z,85.05
2022-08-21T04:40:51.393Z,85.05
2022-08-21T04:41:51.384Z,85.05
2022-08-21T04:42:51.436Z,85.05
2022-08-21T04:43:51.375Z,85.16
2022-08-21T04:44:51.351Z,85.16
2022-08-21T04:45:51.351Z,84.95
2022-08-21T04:46:51.338Z,84.95
2022-08-21T04:47:52.507Z,84.85
2022-08-21T04:48:51.305Z,84.85
2022-08-21T04:49:51.314Z,84.85
2022-08-21T04:50:51.279Z,84.65
2022-08-21T04:51:51.280Z,84.45
2022-08-21T04:52:51.383Z,84.35
2022-08-21T04:53:51.256Z,84.35
2022-08-21T04:54:54.791Z,84.35
2022-08-21T04:55:51.237Z,84.45
2022-08-21T04:56:51.220Z,84.65
2022-08-21T04:57:51.211Z,84.65
2022-08-21T04:58:51.199Z,84.65
2022-08-21T04:59:51.232Z,84.65
2022-08-21T05:00:51.180Z,84.65
2022-08-21T05:01:51.246Z,84.45
2022-08-21T05:02:51.216Z,84.45
2022-08-21T05:03:51.164Z,84.45
2022-08-21T05:04:51.141Z,84.35
2022-08-21T05:05:51.135Z,84.35
2022-08-21T05:06:51.108Z,84.45
2022-08-21T05:07:51.104Z,84.65
2022-08-21T05:08:51.087Z,84.75
2022-08-21T05:09:51.087Z,84.75
2022-08-21T05:10:51.076Z,84.45
2022-08-21T05:11:51.061Z,84.35
2022-08-21T05:12:51.130Z,83.84
2022-08-21T05:13:56.969Z,83.95
2022-08-21T05:14:51.025Z,83.84
2022-08-21T05:15:51.027Z,83.95
2022-08-21T05:16:51.011Z,84.15
2022-08-21T05:17:55.488Z,84.15
2022-08-21T05:18:50.994Z,84.25
2022-08-21T05:19:50.965Z,84.35
2022-08-21T05:20:50.969Z,84.25
2022-08-21T05:21:50.951Z,84.15
2022-08-21T05:22:51.234Z,83.65
2022-08-21T05:23:50.943Z,83.65
2022-08-21T05:24:50.947Z,83.75
2022-08-21T05:25:50.905Z,83.79
2022-08-21T05:26:50.896Z,83.89
2022-08-21T05:27:52.282Z,84.09
2022-08-21T05:28:50.884Z,83.99
2022-08-21T05:29:50.860Z,83.95
2022-08-21T05:30:50.864Z,84.05
2022-08-21T05:31:50.838Z,83.84
2022-08-21T05:32:50.930Z,83.84
2022-08-21T05:33:50.831Z,83.65
2022-08-21T05:34:50.814Z,83.45
2022-08-21T05:35:50.817Z,83.65
2022-08-21T05:36:50.781Z,83.65
2022-08-21T05:37:50.774Z,83.65
2022-08-21T05:38:50.771Z,83.65
2022-08-21T05:40:20.257Z,83.34
2022-08-21T05:40:50.848Z,83.45
2022-08-21T05:41:50.738Z,83.54
2022-08-21T05:42:54.286Z,83.75
2022-08-21T05:43:50.707Z,83.75
2022-08-21T05:44:50.696Z,83.75
2022-08-21T05:45:50.700Z,83.75
2022-08-21T05:46:50.681Z,83.75
2022-08-21T05:47:50.672Z,83.45
2022-08-21T05:48:50.662Z,82.94
2022-08-21T05:49:50.640Z,83.04
2022-08-21T05:50:50.640Z,83.14
2022-08-21T05:51:50.656Z,83.45
2022-08-21T05:52:50.613Z,83.65
2022-08-21T05:53:50.615Z,83.75
2022-08-21T05:54:50.590Z,83.75
2022-08-21T05:55:50.575Z,83.84
2022-08-21T05:56:50.572Z,83.65
2022-08-21T05:57:50.560Z,83.65
2022-08-21T05:58:50.547Z,83.75
2022-08-21T05:59:50.535Z,83.54
2022-08-21T06:00:50.521Z,83.75
2022-08-21T06:01:50.580Z,83.84
2022-08-21T06:02:50.537Z,83.95
2022-08-21T06:03:50.491Z,83.84
2022-08-21T06:04:50.480Z,83.91
2022-08-21T06:05:50.464Z,84.11
2022-08-21T06:06:50.472Z,83.91
2022-08-21T06:07:50.458Z,84.01
2022-08-21T06:08:50.445Z,83.91
2022-08-21T06:09:50.421Z,83.81
2022-08-21T06:10:50.451Z,83.71
2022-08-21T06:11:50.406Z,83.71
2022-08-21T06:12:50.392Z,83.81
2022-08-21T06:13:50.398Z,83.61
2022-08-21T06:14:50.375Z,83.40
2022-08-21T06:15:50.372Z,83.20
2022-08-21T06:16:50.368Z,83.40
2022-08-21T06:17:50.343Z,83.31
2022-08-21T06:18:50.336Z,83.40
2022-08-21T06:19:50.317Z,83.51
2022-08-21T06:20:50.312Z,83.51
2022-08-21T06:21:50.297Z,83.40
2022-08-21T06:22:50.299Z,83.40
2022-08-21T06:23:50.282Z,83.71
2022-08-21T06:24:50.271Z,83.40
2022-08-21T06:25:50.245Z,83.40
2022-08-21T06:26:50.241Z,83.20
2022-08-21T06:27:50.230Z,83.20
2022-08-21T06:28:50.211Z,83.11
2022-08-21T06:29:50.212Z,83.00
2022-08-21T06:30:50.206Z,82.90
2022-08-21T06:31:50.185Z,83.11
2022-08-21T06:32:50.170Z,83.20
2022-08-21T06:33:50.164Z,83.00
2022-08-21T06:34:50.162Z,82.80
2022-08-21T06:35:50.141Z,83.11
2022-08-21T06:36:50.129Z,83.31
2022-08-21T06:37:50.112Z,83.31
2022-08-21T06:38:51.061Z,83.37
2022-08-21T06:39:50.129Z,83.06
2022-08-21T06:40:50.100Z,82.16
2022-08-21T06:41:50.072Z,82.26
2022-08-21T06:42:50.068Z,82.26
2022-08-21T06:43:50.053Z,81.96
2022-08-21T06:44:50.047Z,81.65
2022-08-21T06:45:50.065Z,81.46
2022-08-21T06:46:50.025Z,81.35
2022-08-21T06:47:50.005Z,80.95
2022-08-21T06:48:50.000Z,80.85
2022-08-21T06:49:49.984Z,80.95
2022-08-21T06:50:49.979Z,81.05
2022-08-21T06:51:49.981Z,81.15
2022-08-21T06:52:49.948Z,81.26
2022-08-21T06:53:49.938Z,81.15
2022-08-21T06:54:49.926Z,81.15
2022-08-21T06:55:49.921Z,80.85
2022-08-21T06:56:49.922Z,80.51
2022-08-21T06:57:52.580Z,80.51
2022-08-21T06:58:49.895Z,80.11
2022-08-21T06:59:49.870Z,80.21
2022-08-21T07:00:49.858Z,80.11
2022-08-21T07:01:49.903Z,80.31
2022-08-21T07:02:49.843Z,79.91
2022-08-21T07:03:49.858Z,80.11
2022-08-21T07:04:49.818Z,80.11
2022-08-21T07:05:49.827Z,80.21
2022-08-21T07:06:49.800Z,79.91
2022-08-21T07:07:49.779Z,80.01
2022-08-21T07:08:49.795Z,80.21
2022-08-21T07:09:49.760Z,79.91
2022-08-21T07:10:49.751Z,79.71
2022-08-21T07:11:49.735Z,79.81
2022-08-21T07:12:49.741Z,79.21
2022-08-21T07:13:49.728Z,79.10
2022-08-21T07:14:49.724Z,79.50
2022-08-21T07:15:49.689Z,79.61
2022-08-21T07:16:49.709Z,79.21
2022-08-21T07:17:49.681Z,78.97
2022-08-21T07:18:49.667Z,78.97
2022-08-21T07:19:49.662Z,78.46
2022-08-21T07:20:49.652Z,78.46
2022-08-21T07:21:49.630Z,78.56
2022-08-21T07:22:49.617Z,77.86
2022-08-21T07:23:49.601Z,77.26
2022-08-21T07:24:49.600Z,77.36
2022-08-21T07:25:49.614Z,77.26
2022-08-21T07:26:49.586Z,77.52
2022-08-21T07:27:49.563Z,77.52
2022-08-21T07:28:49.549Z,77.02
2022-08-21T07:29:49.540Z,76.62
2022-08-21T07:30:49.542Z,76.82
2022-08-21T07:31:49.550Z,76.82
2022-08-21T07:32:49.516Z,76.68
2022-08-21T07:33:49.509Z,76.38
2022-08-21T07:34:49.490Z,75.68
2022-08-21T07:35:49.471Z,75.27
2022-08-21T07:36:49.466Z,75.38
2022-08-21T07:37:49.475Z,75.18
2022-08-21T07:38:52.764Z,74.64
2022-08-21T07:39:49.450Z,74.24
2022-08-21T07:40:49.428Z,74.14
2022-08-21T07:41:49.412Z,73.94
2022-08-21T07:42:49.404Z,74.24
2022-08-21T07:43:49.379Z,73.60
2022-08-21T07:44:50.868Z,73.90
2022-08-21T07:45:49.369Z,73.30
2022-08-21T07:46:49.358Z,73.60
2022-08-21T07:47:51.904Z,73.10
2022-08-21T07:48:49.334Z,73.00
2022-08-21T07:49:49.335Z,72.60
2022-08-21T07:50:49.315Z,72.70
2022-08-21T07:51:49.299Z,72.66
2022-08-21T07:52:49.314Z,72.30
2022-08-21T07:53:49.277Z,72.60
2022-08-21T07:54:49.275Z,72.09
2022-08-21T07:55:49.269Z,72.36
2022-08-21T07:56:49.246Z,72.36
2022-08-21T07:57:49.261Z,70.56
2022-08-21T07:58:49.222Z,70.66
2022-08-21T07:59:49.208Z,70.66
2022-08-21T08:00:49.219Z,70.66
2022-08-21T08:01:49.184Z,70.86
2022-08-21T08:02:49.182Z,71.06
2022-08-21T08:03:49.162Z,71.16
2022-08-21T08:04:50.521Z,70.86
2022-08-21T08:05:49.143Z,70.36
2022-08-21T08:06:49.172Z,70.16
2022-08-21T08:07:49.112Z,70.26
2022-08-21T08:08:49.106Z,70.86
2022-08-21T08:09:49.095Z,71.36
2022-08-21T08:10:49.094Z,70.66
2022-08-21T08:11:49.076Z,69.76
2022-08-21T08:12:49.076Z,69.76
2022-08-21T08:13:49.077Z,69.56
2022-08-21T08:14:49.042Z,70.12
2022-08-21T08:15:49.029Z,69.62
2022-08-21T08:16:49.027Z,69.62
2022-08-21T08:17:49.019Z,69.23
2022-08-21T08:18:49.010Z,68.69
2022-08-21T08:19:48.987Z,68.29
2022-08-21T08:20:48.980Z,68.19
2022-08-21T08:21:48.962Z,68.29
2022-08-21T08:22:50.395Z,68.29
2022-08-21T08:23:48.978Z,68.39
2022-08-21T08:24:48.936Z,68.29
2022-08-21T08:25:48.918Z,68.19
2022-08-21T08:26:53.595Z,68.29
2022-08-21T08:27:48.922Z,68.29
2022-08-21T08:28:48.907Z,68.26
2022-08-21T08:29:48.882Z,67.55
2022-08-21T08:30:48.863Z,67.25
2022-08-21T08:31:48.890Z,67.05
2022-08-21T08:32:48.867Z,67.05
2022-08-21T08:33:48.846Z,67.05
2022-08-21T08:34:48.830Z,66.96
2022-08-21T08:35:48.806Z,66.55
2022-08-21T08:36:48.801Z,66.46
2022-08-21T08:37:52.315Z,66.63
2022-08-21T08:38:48.815Z,66.63
2022-08-21T08:39:48.815Z,66.42
2022-08-21T08:40:48.757Z,66.22
2022-08-21T08:41:48.746Z,65.92
2022-08-21T08:42:48.755Z,65.33
2022-08-21T08:43:48.726Z,65.42
2022-08-21T08:44:48.733Z,65.72
2022-08-21T08:45:48.697Z,65.42
2022-08-21T08:46:48.690Z,64.92
2022-08-21T08:47:48.760Z,64.32
2022-08-21T08:48:52.891Z,64.12
2022-08-21T08:49:48.670Z,64.22
2022-08-21T08:50:48.651Z,64.32
2022-08-21T08:51:48.638Z,65.22
2022-08-21T08:52:48.629Z,65.52
2022-08-21T08:53:48.613Z,65.89
2022-08-21T08:54:48.613Z,65.59
2022-08-21T08:55:48.612Z,64.99
2022-08-21T08:56:48.582Z,65.19
2022-08-21T08:57:49.881Z,63.69
2022-08-21T08:58:48.567Z,63.29
2022-08-21T08:59:48.556Z,63.69
2022-08-21T09:00:48.586Z,64.16
2022-08-21T09:01:48.573Z,62.96
2022-08-21T09:02:48.520Z,63.19
2022-08-21T09:03:48.506Z,63.69
2022-08-21T09:04:48.497Z,63.59
2022-08-21T09:05:48.493Z,63.69
2022-08-21T09:06:48.486Z,63.39
2022-08-21T09:07:48.463Z,63.66
2022-08-21T09:08:48.457Z,63.96
2022-08-21T09:09:48.437Z,63.36
2022-08-21T09:10:48.437Z,63.17
2022-08-21T09:11:48.429Z,62.96
2022-08-21T09:12:48.410Z,62.76
2022-08-21T09:13:48.421Z,62.96
2022-08-21T09:14:48.390Z,62.56
2022-08-21T09:15:48.369Z,62.66
2022-08-21T09:16:48.381Z,62.73
2022-08-21T09:17:48.364Z,62.34
2022-08-21T09:18:48.344Z,62.66
2022-08-21T09:19:48.326Z,62.46
2022-08-21T09:20:48.325Z,62.66
2022-08-21T09:21:48.311Z,62.89
2022-08-21T09:22:48.299Z,63.29
2022-08-21T09:23:48.297Z,62.86
2022-08-21T09:24:51.837Z,61.87
2022-08-21T09:25:48.265Z,62.16
2022-08-21T09:26:48.268Z,61.87
2022-08-21T09:27:48.236Z,61.66
2022-08-21T09:28:48.246Z,61.07
2022-08-21T09:29:48.220Z,61.07
2022-08-21T09:30:48.214Z,61.16
2022-08-21T09:31:48.208Z,61.36
2022-08-21T09:32:48.200Z,61.46
2022-08-21T09:33:48.191Z,61.54
2022-08-21T09:34:48.175Z,61.83
2022-08-21T09:35:48.157Z,61.93
2022-08-21T09:36:48.143Z,62.13
2022-08-21T09:37:48.139Z,62.34
2022-08-21T09:38:48.129Z,61.90
2022-08-21T09:39:48.930Z,61.80
2022-08-21T09:40:48.103Z,61.90
2022-08-21T09:41:48.097Z,61.71
2022-08-21T09:42:48.078Z,61.21
2022-08-21T09:43:48.068Z,61.21
2022-08-21T09:44:48.066Z,60.71
2022-08-21T09:45:48.051Z,60.50
2022-08-21T09:46:48.040Z,60.00
2022-08-21T09:47:48.027Z,59.51
2022-08-21T09:48:48.008Z,60.00
2022-08-21T09:49:48.018Z,60.11
2022-08-21T09:50:47.998Z,59.31
2022-08-21T09:51:47.991Z,59.11
2022-08-21T09:52:47.964Z,58.91
2022-08-21T09:53:47.965Z,59.31
2022-08-21T09:54:47.951Z,59.48
2022-08-21T09:55:47.972Z,59.58
2022-08-21T09:56:47.926Z,59.68
2022-08-21T09:57:50.478Z,59.28
2022-08-21T09:58:47.905Z,59.58
2022-08-21T09:59:47.899Z,60.17
2022-08-21T10:00:47.912Z,60.38
2022-08-21T10:01:47.887Z,59.58
2022-08-21T10:02:47.886Z,58.98
2022-08-21T10:03:47.851Z,58.58
2022-08-21T10:04:47.840Z,59.08
2022-08-21T10:05:47.850Z,59.58
2022-08-21T10:06:47.819Z,59.98
2022-08-21T10:07:47.823Z,59.98
2022-08-21T10:08:47.796Z,59.48
2022-08-21T10:09:47.797Z,59.68
2022-08-21T10:10:47.774Z,59.65
2022-08-21T10:11:47.771Z,58.75
2022-08-21T10:12:47.765Z,58.65
2022-08-21T10:13:47.824Z,58.36
2022-08-21T10:14:47.728Z,58.15
2022-08-21T10:15:47.723Z,57.06
2022-08-21T10:16:47.720Z,56.93
2022-08-21T10:17:47.716Z,55.93
2022-08-21T10:18:47.699Z,56.26
2022-08-21T10:19:47.680Z,56.76
2022-08-21T10:20:47.663Z,56.76
2022-08-21T10:21:49.170Z,56.26
2022-08-21T10:22:47.656Z,56.76
2022-08-21T10:23:47.666Z,57.46
2022-08-21T10:24:47.623Z,57.56
2022-08-21T10:25:56.386Z,57.86
2022-08-21T10:26:47.614Z,57.95
2022-08-21T10:27:47.597Z,57.53
2022-08-21T10:28:47.593Z,57.93
2022-08-21T10:29:47.595Z,56.73
2022-08-21T10:30:47.552Z,56.33
2022-08-21T10:31:47.548Z,55.24
2022-08-21T10:32:47.532Z,54.44
2022-08-21T10:33:47.541Z,54.94
2022-08-21T10:34:47.523Z,54.74
2022-08-21T10:35:47.518Z,54.24
2022-08-21T10:36:47.495Z,52.74
2022-08-21T10:37:47.503Z,51.75
2022-08-21T10:38:58.660Z,51.67
2022-08-21T10:39:47.526Z,51.84
2022-08-21T10:40:47.444Z,51.65
2022-08-21T10:41:47.429Z,51.84
2022-08-21T10:42:47.437Z,51.15
2022-08-21T10:43:47.422Z,50.74
2022-08-21T10:44:47.417Z,49.85
2022-08-21T10:45:47.387Z,49.15
2022-08-21T10:46:47.386Z,49.53
2022-08-21T10:47:47.361Z,49.43
2022-08-21T10:48:47.384Z,52.02
2022-08-21T10:49:47.376Z,51.22
2022-08-21T10:50:47.349Z,50.90
2022-08-21T10:51:47.321Z,50.50
2022-08-21T10:52:47.319Z,49.30
2022-08-21T10:53:47.386Z,49.01
2022-08-21T10:54:47.299Z,48.80
2022-08-21T10:55:47.297Z,48.91
2022-08-21T10:56:47.275Z,48.91
2022-08-21T10:57:47.262Z,55.28
2022-08-21T10:58:47.249Z,50.02
2022-08-21T10:59:47.240Z,49.53
2022-08-21T11:00:47.300Z,49.63
2022-08-21T11:01:47.234Z,49.90
2022-08-21T11:02:47.216Z,50.20
2022-08-21T11:03:47.199Z,50.38
2022-08-21T11:04:49.573Z,49.88
2022-08-21T11:05:50.644Z,50.08
2022-08-21T11:06:47.179Z,50.15
2022-08-21T11:07:47.153Z,50.35
2022-08-21T11:08:47.771Z,49.33
2022-08-21T11:09:47.133Z,46.75
2022-08-21T11:10:51.230Z,47.05
2022-08-21T11:11:49.119Z,47.44
2022-08-21T11:12:47.105Z,47.34
2022-08-21T11:13:47.090Z,47.05
2022-08-21T11:14:50.134Z,47.14
2022-08-21T11:15:47.067Z,47.13
2022-08-21T11:16:47.073Z,46.33
2022-08-21T11:17:47.053Z,46.83
2022-08-21T11:18:47.042Z,47.25
2022-08-21T11:19:47.037Z,47.32
2022-08-21T11:20:47.012Z,47.42
2022-08-21T11:21:47.020Z,46.53
2022-08-21T11:22:50.203Z,46.95
2022-08-21T11:23:46.989Z,47.44
2022-08-21T11:24:47.064Z,47.13
2022-08-21T11:25:46.971Z,47.32
2022-08-21T11:26:46.990Z,47.13
2022-08-21T11:27:46.935Z,46.60
2022-08-21T11:28:46.928Z,46.20
2022-08-21T11:29:46.906Z,46.98
2022-08-21T11:30:46.904Z,46.88
2022-08-21T11:31:46.904Z,47.08
2022-08-21T11:32:46.893Z,47.28
2022-08-21T11:33:46.871Z,46.78
2022-08-21T11:34:46.967Z,46.98
2022-08-21T11:35:46.847Z,47.95
2022-08-21T11:36:47.494Z,45.96
2022-08-21T11:37:46.839Z,46.16
2022-08-21T11:38:46.829Z,45.96
2022-08-21T11:39:46.884Z,45.67
2022-08-21T11:40:46.813Z,45.74
2022-08-21T11:41:46.785Z,43.46
2022-08-21T11:42:46.788Z,43.85
2022-08-21T11:43:46.797Z,43.56
2022-08-21T11:44:46.786Z,43.66
2022-08-21T11:45:46.737Z,43.46
2022-08-21T11:46:46.735Z,42.66
2022-08-21T11:47:50.907Z,42.96
2022-08-21T11:48:46.754Z,43.56
2022-08-21T11:49:46.716Z,43.16
2022-08-21T11:50:46.695Z,43.16
2022-08-21T11:51:46.676Z,43.66
2022-08-21T11:52:46.677Z,43.98
2022-08-21T11:53:49.821Z,44.35
2022-08-21T11:54:46.673Z,44.35
2022-08-21T11:55:46.653Z,44.15
2022-08-21T11:56:46.629Z,44.35
2022-08-21T11:57:46.608Z,44.06
2022-08-21T11:58:46.616Z,44.13
2022-08-21T11:59:46.623Z,44.43
2022-08-21T12:00:46.599Z,44.41
2022-08-21T12:01:46.674Z,44.29
2022-08-21T12:02:46.578Z,43.40
2022-08-21T12:03:46.548Z,43.57
2022-08-21T12:04:47.036Z,43.08
2022-08-21T12:05:46.551Z,42.88
2022-08-21T12:06:46.545Z,42.68
2022-08-21T12:07:46.513Z,42.19
2022-08-21T12:08:46.493Z,44.64
2022-08-21T12:09:46.487Z,43.06
2022-08-21T12:10:46.493Z,42.84
2022-08-21T12:11:46.473Z,43.02
2022-08-21T12:12:46.468Z,44.87
2022-08-21T12:13:46.443Z,41.71
2022-08-21T12:14:46.437Z,42.22
2022-08-21T12:15:46.417Z,43.10
2022-08-21T12:16:46.454Z,41.30
2022-08-21T12:17:46.409Z,42.07
2022-08-21T12:18:46.400Z,40.55
2022-08-21T12:19:46.381Z,40.13
2022-08-21T12:20:50.483Z,40.61
2022-08-21T12:21:46.352Z,40.00
2022-08-21T12:22:46.361Z,40.86
2022-08-21T12:23:46.347Z,39.86
2022-08-21T12:24:46.334Z,39.66
2022-08-21T12:25:46.363Z,39.05
2022-08-21T12:26:46.301Z,39.03
2022-08-21T12:27:46.305Z,39.62
2022-08-21T12:28:46.304Z,38.82
2022-08-21T12:29:46.269Z,38.01
2022-08-21T12:30:46.296Z,38.01
2022-08-21T12:31:46.252Z,37.60
2022-08-21T12:32:46.246Z,37.29
2022-08-21T12:33:46.255Z,36.09
2022-08-21T12:34:46.221Z,37.17
2022-08-21T12:35:46.218Z,34.61
2022-08-21T12:36:46.214Z,36.08
2022-08-21T12:37:46.192Z,34.90
2022-08-21T12:38:46.199Z,34.61
2022-08-21T12:39:46.233Z,34.81
2022-08-21T12:40:46.193Z,36.30
2022-08-21T12:41:46.144Z,36.11
2022-08-21T12:43:00.588Z,36.29
2022-08-21T12:43:46.133Z,34.81
2022-08-21T12:44:46.115Z,35.13
2022-08-21T12:45:46.107Z,35.52
2022-08-21T12:46:46.100Z,36.30
2022-08-21T12:47:46.079Z,35.31
2022-08-21T12:48:46.102Z,35.21
2022-08-21T12:49:46.055Z,34.72
2022-08-21T12:50:48.978Z,35.23
2022-08-21T12:51:46.042Z,35.41
2022-08-21T12:52:46.038Z,35.80